createdAt,value
2023-05-10T00:01:44.223Z,100.00
2023-05-10T00:04:12.894Z,100.00
2023-05-10T00:06:40.157Z,100.00
2023-05-10T00:09:07.341Z,100.00
2023-05-10T00:11:34.488Z,100.00
2023-05-10T00:14:01.688Z,100.00
2023-05-10T00:16:28.973Z,100.00
2023-05-10T00:18:56.295Z,100.00
2023-05-10T00:21:24.798Z,100.00
2023-05-10T00:23:51.973Z,100.00
2023-05-10T00:26:19.147Z,100.00
2023-05-10T00:28:52.460Z,100.00
2023-05-10T00:31:19.814Z,100.00
2023-05-10T00:33:47.021Z,100.00
2023-05-10T00:36:14.177Z,100.00
2023-05-10T00:38:43.488Z,100.00
2023-05-10T00:41:10.717Z,100.00
2023-05-10T00:43:40.082Z,100.00
2023-05-10T00:46:07.406Z,100.00
2023-05-10T00:48:35.333Z,100.00
2023-05-10T00:51:02.746Z,100.00
2023-05-10T00:53:32.099Z,100.00
2023-05-10T00:56:00.785Z,100.00
2023-05-10T00:58:29.289Z,100.00
2023-05-10T01:00:56.638Z,100.00
2023-05-10T01:03:23.930Z,100.00
2023-05-10T01:05:51.181Z,100.00
2023-05-10T01:08:19.247Z,100.00
2023-05-10T01:10:46.511Z,100.00
2023-05-10T01:13:24.627Z,100.00
2023-05-10T01:15:51.966Z,100.00
2023-05-10T01:18:21.613Z,100.00
2023-05-10T01:20:59.346Z,100.00
2023-05-10T01:23:42.644Z,100.00
2023-05-10T01:26:32.576Z,100.00
2023-05-10T01:29:25.029Z,100.00
2023-05-10T01:32:21.864Z,100.00
2023-05-10T01:35:00.585Z,100.00
2023-05-10T01:37:46.396Z,100.00
2023-05-10T01:40:20.751Z,100.00
2023-05-10T01:42:52.245Z,100.00
2023-05-10T01:45:27.905Z,100.00
2023-05-10T01:48:06.171Z,100.00
2023-05-10T01:50:36.400Z,100.00
2023-05-10T01:53:07.453Z,100.00
2023-05-10T01:55:40.466Z,100.00
2023-05-10T01:58:13.885Z,100.00
2023-05-10T02:00:44.040Z,100.00
2023-05-10T02:03:14.561Z,100.00
2023-05-10T02:05:44.102Z,100.00
2023-05-10T02:08:12.958Z,100.00
2023-05-10T02:10:40.912Z,100.00
2023-05-10T02:13:09.172Z,100.00
2023-05-10T02:15:37.932Z,100.00
2023-05-10T02:18:07.026Z,100.00
2023-05-10T02:20:37.808Z,100.00
2023-05-10T02:23:06.007Z,100.00
2023-05-10T02:25:34.111Z,100.00
2023-05-10T02:28:04.055Z,100.00
2023-05-10T02:30:33.225Z,100.00
2023-05-10T02:33:01.057Z,100.00
2023-05-10T02:35:28.988Z,100.00
2023-05-10T02:37:59.399Z,100.00
2023-05-10T02:40:28.945Z,100.00
2023-05-10T02:42:58.600Z,100.00
2023-05-10T02:45:30.972Z,100.00
2023-05-10T02:47:59.472Z,100.00
2023-05-10T02:50:29.207Z,100.00
2023-05-10T02:53:02.078Z,100.00
2023-05-10T02:55:36.055Z,100.00
2023-05-10T02:58:03.973Z,100.00
2023-05-10T03:00:31.675Z,100.00
2023-05-10T03:02:59.014Z,100.00
2023-05-10T03:05:27.216Z,100.00
2023-05-10T03:07:55.524Z,100.00
2023-05-10T03:10:28.005Z,100.00
2023-05-10T03:13:06.724Z,100.00
2023-05-10T03:15:43.309Z,100.00
2023-05-10T03:18:16.201Z,100.00
2023-05-10T03:20:47.883Z,100.00
2023-05-10T03:23:23.448Z,100.00
2023-05-10T03:25:53.029Z,100.00
2023-05-10T03:28:21.789Z,100.00
2023-05-10T03:30:50.363Z,100.00
2023-05-10T03:33:17.585Z,100.00
2023-05-10T03:35:46.902Z,100.00
2023-05-10T03:38:15.096Z,100.00
2023-05-10T03:40:42.391Z,100.00
2023-05-10T03:43:11.049Z,100.00
2023-05-10T03:45:38.216Z,100.00
2023-05-10T03:48:06.474Z,100.00
2023-05-10T03:50:33.715Z,100.00
2023-05-10T03:53:01.297Z,100.00
2023-05-10T03:55:29.306Z,100.00
2023-05-10T03:57:56.946Z,100.00
2023-05-10T04:00:26.117Z,100.00
2023-05-10T04:02:56.010Z,100.00
2023-05-10T04:05:24.132Z,100.00
2023-05-10T04:07:53.760Z,100.00
2023-05-10T04:10:20.956Z,100.00
2023-05-10T04:12:48.197Z,100.00
2023-05-10T04:15:15.492Z,100.00
2023-05-10T04:17:44.080Z,100.00
2023-05-10T04:20:12.325Z,100.00
2023-05-10T04:22:39.822Z,100.00
2023-05-10T04:25:07.959Z,100.00
2023-05-10T04:27:35.270Z,100.00
2023-05-10T04:30:02.616Z,100.00
2023-05-10T04:32:29.872Z,100.00
2023-05-10T04:34:58.454Z,100.00
2023-05-10T04:37:25.626Z,100.00
2023-05-10T04:39:52.785Z,100.00
2023-05-10T04:42:19.922Z,100.00
2023-05-10T04:44:47.081Z,100.00
2023-05-10T04:47:14.284Z,100.00
2023-05-10T04:49:41.477Z,100.00
2023-05-10T04:52:10.028Z,100.00
2023-05-10T04:54:37.189Z,100.00
2023-05-10T04:57:04.493Z,100.00
2023-05-10T04:59:31.643Z,100.00
2023-05-10T05:01:58.872Z,100.00
2023-05-10T05:04:26.057Z,100.00
2023-05-10T05:06:54.032Z,100.00
2023-05-10T05:09:22.725Z,100.00
2023-05-10T05:11:49.869Z,100.00
2023-05-10T05:14:17.057Z,100.00
2023-05-10T05:16:44.337Z,100.00
2023-05-10T05:19:11.470Z,100.00
2023-05-10T05:21:38.675Z,100.00
2023-05-10T05:24:06.862Z,100.00
2023-05-10T05:26:35.384Z,100.00
2023-05-10T05:29:02.549Z,100.00
2023-05-10T05:31:30.033Z,100.00
2023-05-10T05:33:57.252Z,100.00
2023-05-10T05:36:24.421Z,100.00
2023-05-10T05:38:51.607Z,100.00
2023-05-10T05:41:18.745Z,100.00
2023-05-10T05:43:47.230Z,100.00
2023-05-10T05:46:14.483Z,100.00
2023-05-10T05:48:41.707Z,100.00
2023-05-10T05:51:08.846Z,100.00
2023-05-10T05:53:36.054Z,100.00
2023-05-10T05:56:03.465Z,100.00
2023-05-10T05:58:30.641Z,99.69
2023-05-10T06:00:59.136Z,99.94
2023-05-10T06:03:26.602Z,100.00
2023-05-10T06:05:53.926Z,100.00
2023-05-10T06:08:21.092Z,100.00
2023-05-10T06:10:48.236Z,100.00
2023-05-10T06:13:15.552Z,100.00
2023-05-10T06:15:42.755Z,100.00
2023-05-10T06:18:11.335Z,100.00
2023-05-10T06:20:38.550Z,100.00
2023-05-10T06:23:05.713Z,100.00
2023-05-10T06:25:32.896Z,100.00
2023-05-10T06:28:00.112Z,100.00
2023-05-10T06:30:27.443Z,100.00
2023-05-10T06:32:55.535Z,100.00
2023-05-10T06:35:24.298Z,100.00
2023-05-10T06:37:51.671Z,100.00
2023-05-10T06:40:19.104Z,100.00
2023-05-10T06:42:46.404Z,100.00
2023-05-10T06:45:13.956Z,100.00
2023-05-10T06:47:41.422Z,100.00
2023-05-10T06:50:09.387Z,100.00
2023-05-10T06:52:38.180Z,100.00
2023-05-10T06:55:06.238Z,100.00
2023-05-10T06:57:33.405Z,100.00
2023-05-10T07:00:00.802Z,100.00
2023-05-10T07:02:28.652Z,100.00
2023-05-10T07:04:55.948Z,100.00
2023-05-10T07:07:23.167Z,100.00
2023-05-10T07:09:51.704Z,100.00
2023-05-10T07:12:18.985Z,100.00
2023-05-10T07:14:46.264Z,100.00
2023-05-10T07:17:13.465Z,100.00
2023-05-10T07:19:41.896Z,100.00
2023-05-10T07:22:09.090Z,100.00
2023-05-10T07:24:36.393Z,99.90
2023-05-10T07:27:05.541Z,100.00
2023-05-10T07:29:32.722Z,100.00
2023-05-10T07:31:59.976Z,99.32
2023-05-10T07:34:27.150Z,99.22
2023-05-10T07:36:54.428Z,98.37
2023-05-10T07:39:27.459Z,97.77
2023-05-10T07:41:55.509Z,97.85
2023-05-10T07:44:24.169Z,97.16
2023-05-10T07:46:51.463Z,98.05
2023-05-10T07:49:18.815Z,98.33
2023-05-10T07:51:46.030Z,97.28
2023-05-10T07:54:13.647Z,97.27
2023-05-10T07:56:41.153Z,97.41
2023-05-10T07:59:09.750Z,97.78
2023-05-10T08:01:39.249Z,96.48
2023-05-10T08:04:06.536Z,96.43
2023-05-10T08:06:33.883Z,97.18
2023-05-10T08:09:01.125Z,97.22
2023-05-10T08:11:28.370Z,96.08
2023-05-10T08:13:55.520Z,97.57
2023-05-10T08:16:23.057Z,97.46
2023-05-10T08:18:51.882Z,95.50
2023-05-10T08:21:19.123Z,96.66
2023-05-10T08:23:46.288Z,97.77
2023-05-10T08:26:13.501Z,98.89
2023-05-10T08:28:40.707Z,97.66
2023-05-10T08:31:07.902Z,96.41
2023-05-10T08:33:35.052Z,96.19
2023-05-10T08:36:03.867Z,94.45
2023-05-10T08:38:31.056Z,95.27
2023-05-10T08:40:59.350Z,93.46
2023-05-10T08:43:28.451Z,93.62
2023-05-10T08:45:56.563Z,94.55
2023-05-10T08:48:24.692Z,93.83
2023-05-10T08:50:54.774Z,94.00
2023-05-10T08:53:25.639Z,93.38
2023-05-10T08:55:53.799Z,94.91
2023-05-10T08:58:21.185Z,93.82
2023-05-10T09:00:50.414Z,94.00
2023-05-10T09:03:17.686Z,96.58
2023-05-10T09:05:45.105Z,93.47
2023-05-10T09:08:13.202Z,92.88
2023-05-10T09:10:43.358Z,91.86
2023-05-10T09:13:11.527Z,92.35
2023-05-10T09:15:39.173Z,91.27
2023-05-10T09:18:06.484Z,91.27
2023-05-10T09:20:33.816Z,89.19
2023-05-10T09:23:01.010Z,88.17
2023-05-10T09:25:28.362Z,88.00
2023-05-10T09:27:56.876Z,89.30
2023-05-10T09:30:28.197Z,85.91
2023-05-10T09:32:56.571Z,83.34
2023-05-10T09:35:29.334Z,83.87
2023-05-10T09:38:00.204Z,83.71
2023-05-10T09:40:28.891Z,86.90
2023-05-10T09:42:58.853Z,83.97
2023-05-10T09:45:27.532Z,85.72
2023-05-10T09:47:54.941Z,86.43
2023-05-10T09:50:23.166Z,86.07
2023-05-10T09:52:51.791Z,87.25
2023-05-10T09:55:20.426Z,89.53
2023-05-10T09:57:48.534Z,86.36
2023-05-10T10:00:20.926Z,86.52
2023-05-10T10:02:54.699Z,86.01
2023-05-10T10:05:22.036Z,85.13
2023-05-10T10:07:49.329Z,82.59
2023-05-10T10:10:16.760Z,85.12
2023-05-10T10:12:44.050Z,83.78
2023-05-10T10:15:12.146Z,83.76
2023-05-10T10:17:42.098Z,84.63
2023-05-10T10:20:12.128Z,83.49
2023-05-10T10:22:39.492Z,82.60
2023-05-10T10:25:07.688Z,80.81
2023-05-10T10:27:44.999Z,78.71
2023-05-10T10:30:22.583Z,79.21
2023-05-10T10:33:13.592Z,76.72
2023-05-10T10:35:47.747Z,78.60
2023-05-10T10:38:14.923Z,78.28
2023-05-10T10:40:42.114Z,83.23
2023-05-10T10:43:26.127Z,81.89
2023-05-10T10:46:13.588Z,82.79
2023-05-10T10:48:42.889Z,82.01
2023-05-10T10:51:11.565Z,82.18
2023-05-10T10:53:41.698Z,84.17
2023-05-10T10:56:10.180Z,82.46
2023-05-10T10:58:39.040Z,82.05
2023-05-10T11:01:15.811Z,87.15
2023-05-10T11:04:20.102Z,88.17
2023-05-10T11:06:47.341Z,86.42
2023-05-10T11:09:14.473Z,88.59
2023-05-10T11:11:53.140Z,90.60
2023-05-10T11:14:21.570Z,91.43
2023-05-10T11:16:48.800Z,89.17
2023-05-10T11:19:18.689Z,88.96
2023-05-10T11:21:47.127Z,94.85
2023-05-10T11:24:15.500Z,92.39
2023-05-10T11:26:43.246Z,87.57
2023-05-10T11:29:10.509Z,89.66
2023-05-10T11:31:43.625Z,85.70
2023-05-10T11:34:10.784Z,93.41
2023-05-10T11:36:39.299Z,93.58
2023-05-10T11:39:06.688Z,90.79
2023-05-10T11:41:33.880Z,89.97
2023-05-10T11:44:01.196Z,89.47
2023-05-10T11:46:28.968Z,91.96
2023-05-10T11:48:59.845Z,90.50
2023-05-10T11:51:27.071Z,89.56
2023-05-10T11:53:57.143Z,90.42
2023-05-10T11:56:24.355Z,89.02
2023-05-10T11:58:54.596Z,88.71
2023-05-10T12:01:22.484Z,90.69
2023-05-10T12:03:50.797Z,93.26
2023-05-10T12:06:19.662Z,92.56
2023-05-10T12:08:48.381Z,92.53
2023-05-10T12:11:16.907Z,93.73
2023-05-10T12:13:45.238Z,93.31
2023-05-10T12:16:16.746Z,93.66
2023-05-10T12:18:44.234Z,94.24
2023-05-10T12:21:11.920Z,92.11
2023-05-10T12:23:39.514Z,91.34
2023-05-10T12:26:07.301Z,90.48
2023-05-10T12:28:35.895Z,90.63
2023-05-10T12:31:03.926Z,91.28
2023-05-10T12:33:37.308Z,92.60
2023-05-10T12:36:04.823Z,90.96
2023-05-10T12:38:34.436Z,90.53
2023-05-10T12:41:03.110Z,90.03
2023-05-10T12:43:31.019Z,89.14
2023-05-10T12:45:59.938Z,90.35
2023-05-10T12:48:27.148Z,89.95
2023-05-10T12:50:54.348Z,88.98
2023-05-10T12:53:21.492Z,88.70
2023-05-10T12:55:48.644Z,87.99
2023-05-10T12:58:31.515Z,90.63
2023-05-10T13:01:04.240Z,90.11
2023-05-10T13:03:31.554Z,88.90
2023-05-10T13:05:58.943Z,89.01
2023-05-10T13:08:26.107Z,88.41
2023-05-10T13:10:53.383Z,88.47
2023-05-10T13:13:20.585Z,87.58
2023-05-10T13:15:47.780Z,86.61
2023-05-10T13:18:16.395Z,85.72
2023-05-10T13:20:43.626Z,84.27
2023-05-10T13:23:11.007Z,82.04
2023-05-10T13:25:38.445Z,81.99
2023-05-10T13:28:05.688Z,81.48
2023-05-10T13:30:32.905Z,86.25
2023-05-10T13:33:00.097Z,87.36
2023-05-10T13:35:28.673Z,87.36
2023-05-10T13:37:55.877Z,88.74
2023-05-10T13:40:23.048Z,87.15
2023-05-10T13:42:50.253Z,91.03
2023-05-10T13:45:17.730Z,91.08
2023-05-10T13:47:45.037Z,90.93
2023-05-10T13:50:12.277Z,90.03
2023-05-10T13:52:40.918Z,88.49
2023-05-10T13:55:08.934Z,89.02
2023-05-10T13:57:36.148Z,86.56
2023-05-10T14:00:03.968Z,84.45
2023-05-10T14:02:35.193Z,82.79
2023-05-10T14:05:02.423Z,82.99
2023-05-10T14:07:29.570Z,80.46
2023-05-10T14:09:58.083Z,78.18
2023-05-10T14:12:25.276Z,78.24
2023-05-10T14:14:52.470Z,76.27
2023-05-10T14:17:19.602Z,78.45
2023-05-10T14:19:46.753Z,77.03
2023-05-10T14:22:13.910Z,76.51
2023-05-10T14:24:41.069Z,79.35
2023-05-10T14:27:09.560Z,81.61
2023-05-10T14:29:36.714Z,78.71
2023-05-10T14:32:04.001Z,79.22
2023-05-10T14:34:31.228Z,77.47
2023-05-10T14:36:58.393Z,76.81
2023-05-10T14:39:25.575Z,77.99
2023-05-10T14:41:52.742Z,79.83
2023-05-10T14:44:21.267Z,81.69
2023-05-10T14:46:48.447Z,80.91
2023-05-10T14:49:15.589Z,80.62
2023-05-10T14:51:42.749Z,78.62
2023-05-10T14:54:09.919Z,77.76
2023-05-10T14:56:37.112Z,79.18
2023-05-10T14:59:04.301Z,78.56
2023-05-10T15:01:33.261Z,78.45
2023-05-10T15:04:00.518Z,77.98
2023-05-10T15:06:31.827Z,78.42
2023-05-10T15:08:59.076Z,77.93
2023-05-10T15:11:26.252Z,80.14
2023-05-10T15:13:53.463Z,81.56
2023-05-10T15:16:20.651Z,80.32
2023-05-10T15:18:49.447Z,83.21
2023-05-10T15:21:16.715Z,87.42
2023-05-10T15:23:43.932Z,84.25
2023-05-10T15:26:11.118Z,85.44
2023-05-10T15:28:38.273Z,87.42
2023-05-10T15:31:05.709Z,89.32
2023-05-10T15:33:32.896Z,89.56
2023-05-10T15:36:01.432Z,88.70
2023-05-10T15:38:28.640Z,86.30
2023-05-10T15:40:57.564Z,86.12
2023-05-10T15:43:24.736Z,85.61
2023-05-10T15:45:51.853Z,87.53
2023-05-10T15:48:19.057Z,85.74
2023-05-10T15:50:46.291Z,84.76
2023-05-10T15:53:14.816Z,90.14
2023-05-10T15:55:41.968Z,88.60
2023-05-10T15:58:09.156Z,89.84
2023-05-10T16:00:36.574Z,88.37
2023-05-10T16:03:03.968Z,91.88
2023-05-10T16:05:31.294Z,91.36
2023-05-10T16:07:58.596Z,91.55
2023-05-10T16:10:27.401Z,89.89
2023-05-10T16:12:55.086Z,92.24
2023-05-10T16:15:22.309Z,90.62
2023-05-10T16:17:49.823Z,88.87
2023-05-10T16:20:17.248Z,89.53
2023-05-10T16:22:44.452Z,88.71
2023-05-10T16:25:13.503Z,90.35
2023-05-10T16:27:42.302Z,91.68
2023-05-10T16:30:09.949Z,91.35
2023-05-10T16:32:37.166Z,88.42
2023-05-10T16:35:05.027Z,88.57
2023-05-10T16:37:32.167Z,88.94
2023-05-10T16:39:59.294Z,87.13
2023-05-10T16:42:27.493Z,87.02
2023-05-10T16:44:56.064Z,85.46
2023-05-10T16:47:23.316Z,83.87
2023-05-10T16:49:50.507Z,84.38
2023-05-10T16:52:17.723Z,83.25
2023-05-10T16:54:44.849Z,87.60
2023-05-10T16:57:11.973Z,89.47
2023-05-10T16:59:39.146Z,88.79
2023-05-10T17:02:07.745Z,86.66
2023-05-10T17:04:34.962Z,85.79
2023-05-10T17:07:02.139Z,86.89
2023-05-10T17:09:29.294Z,87.22
2023-05-10T17:11:56.459Z,90.76
2023-05-10T17:14:24.165Z,89.89
2023-05-10T17:16:51.367Z,90.27
2023-05-10T17:19:19.938Z,88.01
2023-05-10T17:21:47.113Z,88.62
2023-05-10T17:24:14.408Z,88.61
2023-05-10T17:26:41.702Z,89.59
2023-05-10T17:29:08.861Z,91.94
2023-05-10T17:31:36.125Z,92.94
2023-05-10T17:34:05.392Z,93.41
2023-05-10T17:36:34.476Z,95.10
2023-05-10T17:39:01.622Z,96.60
2023-05-10T17:41:28.767Z,97.13
2023-05-10T17:43:55.945Z,97.07
2023-05-10T17:46:23.163Z,98.26
2023-05-10T17:48:50.432Z,98.82
2023-05-10T17:51:18.724Z,99.95
2023-05-10T17:53:47.320Z,100.00
2023-05-10T17:56:14.455Z,100.00
2023-05-10T17:58:41.605Z,100.00
2023-05-10T18:01:08.841Z,100.00
2023-05-10T18:03:36.077Z,100.00
2023-05-10T18:06:03.854Z,100.00
2023-05-10T18:08:31.228Z,100.00
2023-05-10T18:10:59.807Z,100.00
2023-05-10T18:13:26.957Z,100.00
2023-05-10T18:15:54.156Z,100.00
2023-05-10T18:18:21.452Z,100.00
2023-05-10T18:20:48.729Z,100.00
2023-05-10T18:23:15.906Z,100.00
2023-05-10T18:25:43.049Z,100.00
2023-05-10T18:28:11.577Z,100.00
2023-05-10T18:30:38.778Z,100.00
2023-05-10T18:33:05.985Z,100.00
2023-05-10T18:35:33.463Z,100.00
2023-05-10T18:38:00.904Z,100.00
2023-05-10T18:40:28.132Z,100.00
2023-05-10T18:42:55.303Z,100.00
2023-05-10T18:45:23.828Z,100.00
2023-05-10T18:47:51.116Z,100.00
2023-05-10T18:50:18.429Z,100.00
2023-05-10T18:52:45.934Z,100.00
2023-05-10T18:55:13.229Z,100.00
2023-05-10T18:57:40.441Z,100.00
2023-05-10T19:00:09.114Z,100.00
2023-05-10T19:02:37.777Z,100.00
2023-05-10T19:05:05.722Z,100.00
2023-05-10T19:07:33.443Z,100.00
2023-05-10T19:10:00.711Z,100.00
2023-05-10T19:12:27.977Z,100.00
2023-05-10T19:14:55.177Z,100.00
2023-05-10T19:17:22.432Z,100.00
2023-05-10T19:19:50.967Z,100.00
2023-05-10T19:22:21.417Z,100.00
2023-05-10T19:24:56.982Z,100.00
2023-05-10T19:27:24.372Z,100.00
2023-05-10T19:29:51.889Z,100.00
2023-05-10T19:32:19.134Z,100.00
2023-05-10T19:34:46.346Z,100.00
2023-05-10T19:37:14.902Z,100.00
2023-05-10T19:39:42.112Z,100.00
2023-05-10T19:42:09.303Z,100.00
2023-05-10T19:44:36.446Z,100.00
2023-05-10T19:47:03.719Z,100.00
2023-05-10T19:49:31.106Z,100.00
2023-05-10T19:51:58.333Z,100.00
2023-05-10T19:54:26.966Z,100.00
2023-05-10T19:56:54.165Z,100.00
2023-05-10T19:59:21.341Z,100.00
2023-05-10T20:01:48.597Z,100.00
2023-05-10T20:04:15.820Z,100.00
2023-05-10T20:06:43.010Z,100.00
2023-05-10T20:09:10.188Z,100.00
2023-05-10T20:11:38.781Z,100.00
2023-05-10T20:14:05.947Z,100.00
2023-05-10T20:16:33.175Z,100.00
2023-05-10T20:19:00.557Z,100.00
2023-05-10T20:21:27.760Z,100.00
2023-05-10T20:23:54.967Z,100.00
2023-05-10T20:26:22.154Z,100.00
2023-05-10T20:28:50.665Z,100.00
2023-05-10T20:31:17.873Z,100.00
2023-05-10T20:33:45.043Z,100.00
2023-05-10T20:36:12.254Z,100.00
2023-05-10T20:38:39.399Z,100.00
2023-05-10T20:41:06.577Z,100.00
2023-05-10T20:43:33.744Z,100.00
2023-05-10T20:46:02.305Z,100.00
2023-05-10T20:48:29.479Z,100.00
2023-05-10T20:50:56.950Z,100.00
2023-05-10T20:53:24.211Z,100.00
2023-05-10T20:55:51.345Z,100.00
2023-05-10T20:58:18.554Z,100.00
2023-05-10T21:00:45.787Z,100.00
2023-05-10T21:03:15.093Z,100.00
2023-05-10T21:05:42.287Z,100.00
2023-05-10T21:08:09.429Z,100.00
2023-05-10T21:10:36.591Z,100.00
2023-05-10T21:13:03.752Z,100.00
2023-05-10T21:15:30.965Z,100.00
2023-05-10T21:17:58.323Z,100.00
2023-05-10T21:20:26.926Z,100.00
2023-05-10T21:22:54.087Z,100.00
2023-05-10T21:25:22.019Z,100.00
2023-05-10T21:27:49.200Z,100.00
2023-05-10T21:30:16.709Z,100.00
2023-05-10T21:32:44.165Z,100.00
2023-05-10T21:35:11.448Z,100.00
2023-05-10T21:37:40.032Z,100.00
2023-05-10T21:40:08.156Z,100.00
2023-05-10T21:42:35.334Z,100.00
2023-05-10T21:45:02.559Z,100.00
2023-05-10T21:47:29.768Z,100.00
2023-05-10T21:49:56.987Z,100.00
2023-05-10T21:52:24.120Z,100.00
2023-05-10T21:54:52.700Z,100.00
2023-05-10T21:57:19.812Z,100.00
2023-05-10T21:59:46.951Z,100.00
2023-05-10T22:02:14.174Z,100.00
2023-05-10T22:04:41.338Z,100.00
2023-05-10T22:07:08.461Z,100.00
2023-05-10T22:09:35.613Z,100.00
2023-05-10T22:12:04.562Z,100.00
2023-05-10T22:14:31.734Z,100.00
2023-05-10T22:16:59.004Z,100.00
2023-05-10T22:19:26.230Z,100.00
2023-05-10T22:21:53.581Z,100.00
2023-05-10T22:24:20.760Z,100.00
2023-05-10T22:26:47.937Z,100.00
2023-05-10T22:29:16.599Z,100.00
2023-05-10T22:31:44.796Z,100.00
2023-05-10T22:34:11.917Z,100.00
2023-05-10T22:36:39.050Z,100.00
2023-05-10T22:39:06.223Z,100.00
2023-05-10T22:41:33.866Z,100.00
2023-05-10T22:44:01.380Z,100.00
2023-05-10T22:46:31.465Z,100.00
2023-05-10T22:48:58.694Z,100.00
2023-05-10T22:51:25.829Z,100.00
2023-05-10T22:53:52.966Z,100.00
2023-05-10T22:56:20.491Z,100.00
2023-05-10T22:58:47.858Z,100.00
2023-05-10T23:01:15.194Z,100.00
2023-05-10T23:03:43.780Z,100.00
2023-05-10T23:06:10.942Z,100.00
2023-05-10T23:08:38.120Z,100.00
2023-05-10T23:11:05.394Z,100.00
2023-05-10T23:13:32.526Z,100.00
2023-05-10T23:16:05.037Z,100.00
2023-05-10T23:18:32.274Z,100.00
2023-05-10T23:21:00.895Z,100.00
2023-05-10T23:23:28.110Z,100.00
2023-05-10T23:25:55.307Z,100.00
2023-05-10T23:28:22.471Z,100.00
2023-05-10T23:30:54.447Z,100.00
2023-05-10T23:33:21.974Z,100.00
2023-05-10T23:35:49.133Z,100.00
2023-05-10T23:38:17.629Z,100.00
2023-05-10T23:40:48.315Z,100.00
2023-05-10T23:43:15.787Z,100.00
2023-05-10T23:45:43.094Z,100.00
2023-05-10T23:48:10.288Z,100.00
2023-05-10T23:50:37.494Z,100.00
2023-05-10T23:53:04.650Z,100.00
2023-05-10T23:55:33.219Z,100.00
2023-05-10T23:58:00.342Z,100.00
